createdAt,value
2022-12-31T00:00:13.852Z,8.53
2022-12-31T00:02:45.806Z,8.50
2022-12-31T00:05:17.499Z,8.45
2022-12-31T00:07:49.415Z,8.50
2022-12-31T00:10:20.942Z,8.49
2022-12-31T00:12:52.931Z,8.50
2022-12-31T00:15:24.492Z,8.51
2022-12-31T00:17:56.358Z,8.50
2022-12-31T00:20:27.903Z,8.54
2022-12-31T00:22:59.876Z,8.53
2022-12-31T00:25:31.418Z,8.58
2022-12-31T00:28:03.399Z,8.52
2022-12-31T00:30:35.096Z,8.60
2022-12-31T00:33:07.095Z,8.62
2022-12-31T00:35:38.737Z,8.64
2022-12-31T00:38:10.781Z,8.64
2022-12-31T00:40:42.301Z,8.62
2022-12-31T00:43:14.233Z,8.61
2022-12-31T00:45:45.810Z,8.60
2022-12-31T00:48:17.994Z,8.58
2022-12-31T00:50:49.597Z,8.56
2022-12-31T00:53:21.543Z,8.61
2022-12-31T00:55:53.139Z,8.71
2022-12-31T00:58:24.964Z,8.71
2022-12-31T01:00:56.553Z,8.72
2022-12-31T01:03:28.556Z,8.76
2022-12-31T01:06:01.396Z,8.89
2022-12-31T01:08:33.339Z,8.93
2022-12-31T01:11:22.316Z,8.97
2022-12-31T01:13:54.665Z,9.08
2022-12-31T01:16:26.245Z,9.10
2022-12-31T01:18:58.381Z,9.12
2022-12-31T01:21:29.921Z,9.23
2022-12-31T01:24:01.943Z,9.24
2022-12-31T01:26:33.512Z,9.37
2022-12-31T01:29:05.429Z,9.45
2022-12-31T01:31:36.948Z,9.57
2022-12-31T01:34:08.977Z,9.59
2022-12-31T01:36:40.531Z,9.60
2022-12-31T01:39:13.228Z,9.67
2022-12-31T01:41:44.777Z,9.81
2022-12-31T01:44:16.669Z,9.80
2022-12-31T01:46:48.311Z,9.86
2022-12-31T01:49:20.179Z,9.94
2022-12-31T01:51:51.736Z,10.00
2022-12-31T01:54:23.780Z,10.01
2022-12-31T01:56:55.608Z,10.09
2022-12-31T01:59:27.453Z,10.10
2022-12-31T02:01:59.131Z,10.12
2022-12-31T02:04:31.249Z,10.13
2022-12-31T02:07:02.869Z,10.13
2022-12-31T02:09:34.874Z,10.15
2022-12-31T02:12:06.426Z,10.16
2022-12-31T02:14:38.279Z,10.15
2022-12-31T02:17:09.872Z,10.13
2022-12-31T02:19:42.147Z,10.18
2022-12-31T02:22:13.662Z,10.18
2022-12-31T02:24:45.770Z,10.20
2022-12-31T02:27:17.317Z,10.22
2022-12-31T02:29:49.478Z,10.18
2022-12-31T02:32:21.059Z,10.18
2022-12-31T02:34:53.046Z,10.19
2022-12-31T02:37:24.579Z,10.11
2022-12-31T02:39:56.452Z,10.02
2022-12-31T02:42:27.980Z,9.96
2022-12-31T02:44:59.987Z,9.86
2022-12-31T02:47:31.646Z,9.80
2022-12-31T02:50:03.720Z,9.71
2022-12-31T02:52:35.309Z,9.61
2022-12-31T02:55:07.212Z,9.54
2022-12-31T02:57:38.739Z,9.48
2022-12-31T03:00:29.378Z,9.46
2022-12-31T03:03:01.031Z,9.44
2022-12-31T03:05:32.895Z,9.46
2022-12-31T03:08:04.478Z,9.50
2022-12-31T03:10:36.349Z,9.54
2022-12-31T03:13:07.846Z,9.55
2022-12-31T03:15:39.728Z,9.60
2022-12-31T03:18:11.292Z,9.65
2022-12-31T03:21:01.725Z,9.71
2022-12-31T03:23:33.268Z,9.78
2022-12-31T03:26:10.627Z,9.81
2022-12-31T03:28:42.446Z,9.83
2022-12-31T03:31:14.348Z,9.87
2022-12-31T03:33:45.996Z,9.91
2022-12-31T03:36:18.121Z,9.98
2022-12-31T03:38:52.723Z,10.03
2022-12-31T03:41:24.947Z,10.02
2022-12-31T03:43:56.484Z,10.08
2022-12-31T03:46:28.343Z,10.13
2022-12-31T03:48:59.883Z,10.17
2022-12-31T03:51:31.861Z,10.23
2022-12-31T03:54:03.370Z,10.25
2022-12-31T03:56:35.528Z,10.27
2022-12-31T03:59:07.062Z,10.32
2022-12-31T04:01:39.421Z,10.32
2022-12-31T04:04:11.083Z,10.36
2022-12-31T04:06:43.159Z,10.38
2022-12-31T04:09:14.720Z,10.44
2022-12-31T04:11:46.700Z,10.48
2022-12-31T04:14:18.298Z,10.52
2022-12-31T04:16:50.419Z,10.54
2022-12-31T04:19:21.951Z,10.57
2022-12-31T04:21:53.912Z,10.57
2022-12-31T04:24:25.480Z,10.63
2022-12-31T04:27:02.102Z,10.66
2022-12-31T04:29:37.084Z,10.66
2022-12-31T04:34:51.766Z,10.69
2022-12-31T04:37:23.510Z,10.78
2022-12-31T04:39:56.954Z,10.77
2022-12-31T04:42:32.326Z,10.80
2022-12-31T04:45:04.011Z,10.84
2022-12-31T04:47:36.025Z,10.88
2022-12-31T04:50:07.567Z,10.88
2022-12-31T04:52:42.852Z,10.89
2022-12-31T04:55:14.667Z,10.96
2022-12-31T04:57:46.537Z,10.92
2022-12-31T05:00:18.023Z,10.98
2022-12-31T05:02:49.929Z,11.00
2022-12-31T05:05:21.534Z,11.04
2022-12-31T05:07:53.351Z,11.08
2022-12-31T05:10:24.929Z,11.11
2022-12-31T05:12:56.706Z,11.16
2022-12-31T05:15:28.199Z,11.21
2022-12-31T05:18:00.085Z,11.28
2022-12-31T05:20:31.623Z,11.32
2022-12-31T05:23:03.542Z,11.37
2022-12-31T05:25:35.018Z,11.39
2022-12-31T05:28:07.006Z,11.28
2022-12-31T05:30:38.533Z,11.14
2022-12-31T05:33:10.384Z,11.01
2022-12-31T05:35:41.874Z,10.96
2022-12-31T05:38:14.037Z,10.96
2022-12-31T05:40:45.641Z,10.97
2022-12-31T05:43:17.647Z,10.92
2022-12-31T05:45:49.145Z,10.94
2022-12-31T05:48:20.958Z,10.87
2022-12-31T05:50:52.472Z,10.92
2022-12-31T05:53:24.375Z,10.98
2022-12-31T05:55:55.857Z,10.97
2022-12-31T05:58:27.784Z,11.00
2022-12-31T06:00:59.320Z,11.07
2022-12-31T06:03:31.257Z,11.07
2022-12-31T06:06:02.748Z,11.09
2022-12-31T06:08:34.585Z,11.12
2022-12-31T06:11:06.063Z,11.17
2022-12-31T06:13:37.838Z,11.23
2022-12-31T06:16:09.414Z,11.22
2022-12-31T06:18:41.625Z,11.25
2022-12-31T06:21:13.125Z,11.24
2022-12-31T06:23:45.055Z,11.32
2022-12-31T06:26:16.568Z,11.33
2022-12-31T06:28:48.434Z,11.44
2022-12-31T06:31:20.013Z,11.51
2022-12-31T06:33:51.867Z,11.57
2022-12-31T06:36:23.469Z,11.72
2022-12-31T06:38:55.743Z,11.80
2022-12-31T06:41:27.244Z,11.80
2022-12-31T06:43:59.036Z,11.89
2022-12-31T06:46:30.533Z,12.06
2022-12-31T06:49:02.399Z,12.08
2022-12-31T06:51:33.902Z,12.20
2022-12-31T06:54:05.762Z,12.36
2022-12-31T06:56:37.271Z,12.43
2022-12-31T06:59:09.108Z,12.42
2022-12-31T07:01:40.651Z,12.48
2022-12-31T07:04:12.533Z,12.49
2022-12-31T07:06:44.148Z,12.55
2022-12-31T07:09:15.957Z,12.56
2022-12-31T07:11:47.475Z,12.55
2022-12-31T07:14:19.299Z,12.63
2022-12-31T07:16:50.790Z,12.69
2022-12-31T07:19:22.625Z,12.69
2022-12-31T07:21:54.491Z,12.75
2022-12-31T07:24:26.559Z,12.87
2022-12-31T07:26:58.067Z,12.97
2022-12-31T07:29:29.931Z,12.97
2022-12-31T07:32:01.484Z,12.96
2022-12-31T07:34:33.383Z,13.02
2022-12-31T07:37:04.860Z,13.08
2022-12-31T07:39:36.888Z,13.18
2022-12-31T07:42:08.360Z,13.22
2022-12-31T07:44:40.138Z,13.29
2022-12-31T07:47:11.621Z,13.29
2022-12-31T07:49:43.784Z,13.33
2022-12-31T07:52:15.278Z,13.36
2022-12-31T07:54:47.162Z,13.38
2022-12-31T07:57:18.638Z,13.54
2022-12-31T07:59:50.528Z,13.57
2022-12-31T08:02:22.116Z,13.58
2022-12-31T08:04:54.172Z,13.59
2022-12-31T08:07:25.675Z,13.60
2022-12-31T08:09:58.463Z,13.69
2022-12-31T08:12:29.960Z,13.74
2022-12-31T08:15:01.914Z,13.76
2022-12-31T08:17:33.394Z,13.83
2022-12-31T08:20:05.237Z,13.89
2022-12-31T08:22:36.763Z,13.90
2022-12-31T08:25:08.832Z,14.01
2022-12-31T08:27:41.976Z,14.09
2022-12-31T08:30:13.793Z,14.14
2022-12-31T08:32:45.295Z,14.21
2022-12-31T08:35:17.260Z,14.23
2022-12-31T08:37:48.849Z,14.27
2022-12-31T08:40:20.700Z,14.30
2022-12-31T08:42:52.316Z,14.36
2022-12-31T08:45:24.168Z,14.39
2022-12-31T08:47:59.838Z,14.49
2022-12-31T08:50:32.155Z,14.55
2022-12-31T08:53:03.631Z,14.62
2022-12-31T08:55:35.577Z,14.75
2022-12-31T08:58:07.071Z,14.85
2022-12-31T09:00:38.916Z,14.87
2022-12-31T09:03:10.450Z,14.94
2022-12-31T09:05:42.332Z,15.04
2022-12-31T09:08:13.861Z,15.01
2022-12-31T09:10:45.743Z,15.00
2022-12-31T09:13:17.352Z,15.02
2022-12-31T09:15:49.506Z,15.09
2022-12-31T09:18:21.380Z,15.16
2022-12-31T09:20:52.902Z,15.29
2022-12-31T09:23:24.889Z,15.35
2022-12-31T09:25:56.373Z,15.50
2022-12-31T09:28:28.191Z,15.52
2022-12-31T09:30:59.702Z,15.86
2022-12-31T09:33:31.580Z,15.82
2022-12-31T09:36:03.195Z,15.94
2022-12-31T09:38:35.019Z,16.16
2022-12-31T09:41:06.504Z,16.19
2022-12-31T09:43:38.288Z,16.20
2022-12-31T09:46:09.879Z,16.05
2022-12-31T09:48:41.725Z,16.11
2022-12-31T09:51:13.208Z,16.35
2022-12-31T09:53:45.164Z,16.29
2022-12-31T09:56:16.746Z,16.45
2022-12-31T09:58:48.631Z,16.47
2022-12-31T10:01:20.234Z,16.47
2022-12-31T10:03:52.104Z,16.37
2022-12-31T10:06:23.693Z,16.54
2022-12-31T10:08:57.098Z,16.44
2022-12-31T10:11:28.667Z,16.35
2022-12-31T10:14:00.482Z,16.38
2022-12-31T10:16:32.081Z,16.38
2022-12-31T10:19:03.965Z,16.60
2022-12-31T10:21:35.456Z,16.66
2022-12-31T10:24:07.406Z,16.77
2022-12-31T10:26:38.928Z,16.97
2022-12-31T10:29:10.661Z,16.89
2022-12-31T10:31:42.266Z,16.99
2022-12-31T10:34:14.171Z,16.92
2022-12-31T10:36:45.696Z,17.10
2022-12-31T10:39:23.856Z,17.15
2022-12-31T10:41:56.024Z,17.10
2022-12-31T10:44:27.864Z,17.13
2022-12-31T10:46:59.389Z,17.11
2022-12-31T10:49:31.271Z,17.05
2022-12-31T10:52:02.816Z,17.02
2022-12-31T10:54:34.625Z,16.96
2022-12-31T10:57:07.359Z,17.00
2022-12-31T10:59:39.328Z,17.02
2022-12-31T11:02:11.049Z,17.11
2022-12-31T11:04:42.979Z,17.00
2022-12-31T11:07:14.529Z,17.17
2022-12-31T11:09:46.938Z,17.12
2022-12-31T11:12:18.445Z,17.06
2022-12-31T11:14:50.307Z,17.10
2022-12-31T11:17:21.873Z,17.00
2022-12-31T11:19:53.607Z,17.03
2022-12-31T11:22:25.190Z,16.93
2022-12-31T11:24:56.880Z,16.88
2022-12-31T11:27:28.372Z,17.01
2022-12-31T11:30:00.298Z,16.94
2022-12-31T11:32:31.823Z,15.59
2022-12-31T11:35:04.003Z,16.95
2022-12-31T11:37:35.597Z,17.01
2022-12-31T11:40:07.357Z,17.04
2022-12-31T11:42:38.912Z,17.07
2022-12-31T11:45:10.771Z,17.19
2022-12-31T11:48:04.302Z,17.16
2022-12-31T11:50:34.109Z,17.26
2022-12-31T11:53:05.625Z,17.25
2022-12-31T11:55:37.455Z,17.42
2022-12-31T11:58:08.978Z,17.62
2022-12-31T12:00:40.833Z,17.71
2022-12-31T12:03:12.417Z,17.76
2022-12-31T12:05:44.311Z,17.69
2022-12-31T12:08:15.839Z,17.67
2022-12-31T12:10:47.861Z,17.66
2022-12-31T12:13:19.391Z,17.63
2022-12-31T12:15:51.395Z,17.74
2022-12-31T12:18:23.013Z,17.64
2022-12-31T12:20:56.321Z,17.57
2022-12-31T12:23:27.881Z,17.47
2022-12-31T12:26:00.109Z,17.41
2022-12-31T12:28:31.664Z,17.39
2022-12-31T12:31:04.980Z,17.36
2022-12-31T12:33:36.522Z,17.31
2022-12-31T12:36:08.419Z,17.34
2022-12-31T12:38:39.914Z,17.43
2022-12-31T12:41:11.963Z,17.46
2022-12-31T12:43:43.478Z,17.42
2022-12-31T12:46:15.310Z,17.38
2022-12-31T12:48:46.869Z,17.42
2022-12-31T12:51:18.794Z,17.38
2022-12-31T12:53:50.327Z,17.39
2022-12-31T12:56:23.029Z,17.30
2022-12-31T12:58:54.547Z,17.37
2022-12-31T13:01:27.345Z,17.46
2022-12-31T13:06:50.947Z,17.49
2022-12-31T13:09:22.507Z,17.50
2022-12-31T13:11:54.300Z,17.52
2022-12-31T13:14:25.812Z,17.56
2022-12-31T13:16:57.670Z,17.49
2022-12-31T13:19:29.493Z,17.54
2022-12-31T13:22:01.339Z,17.49
2022-12-31T13:24:32.852Z,17.48
2022-12-31T13:27:04.802Z,17.45
2022-12-31T13:29:36.318Z,17.42
2022-12-31T13:32:08.179Z,17.41
2022-12-31T13:34:39.724Z,17.42
2022-12-31T13:37:11.689Z,17.43
2022-12-31T13:39:43.199Z,17.48
2022-12-31T13:42:15.024Z,17.47
2022-12-31T13:44:47.744Z,17.55
2022-12-31T13:47:19.583Z,17.50
2022-12-31T13:49:51.545Z,17.49
2022-12-31T13:52:23.423Z,17.49
2022-12-31T13:54:55.023Z,17.46
2022-12-31T13:57:26.866Z,17.43
2022-12-31T13:59:58.382Z,17.39
2022-12-31T14:02:30.413Z,17.38
2022-12-31T14:05:02.426Z,17.40
2022-12-31T14:07:38.861Z,17.36
2022-12-31T14:10:15.493Z,17.37
2022-12-31T14:12:47.280Z,17.39
2022-12-31T14:15:19.177Z,17.40
2022-12-31T14:17:50.748Z,17.35
2022-12-31T14:20:22.583Z,17.42
2022-12-31T14:22:54.101Z,17.33
2022-12-31T14:25:26.006Z,17.32
2022-12-31T14:27:57.602Z,17.34
2022-12-31T14:30:31.238Z,17.31
2022-12-31T14:33:02.772Z,17.30
2022-12-31T14:35:34.608Z,17.28
2022-12-31T14:38:06.146Z,17.19
2022-12-31T14:40:38.023Z,17.20
2022-12-31T14:43:09.537Z,17.11
2022-12-31T14:45:41.447Z,17.10
2022-12-31T14:48:17.112Z,17.12
2022-12-31T14:50:51.867Z,17.04
2022-12-31T14:53:23.535Z,16.97
2022-12-31T14:55:55.401Z,16.90
2022-12-31T14:58:28.371Z,16.88
2022-12-31T15:01:00.743Z,16.78
2022-12-31T15:03:33.264Z,16.75
2022-12-31T15:06:05.164Z,16.71
2022-12-31T15:08:36.680Z,16.72
2022-12-31T15:11:09.047Z,16.69
2022-12-31T15:13:40.566Z,16.71
2022-12-31T15:16:12.442Z,16.71
2022-12-31T15:18:43.996Z,16.60
2022-12-31T15:21:15.934Z,16.65
2022-12-31T15:23:49.474Z,16.61
2022-12-31T15:26:21.270Z,16.59
2022-12-31T15:28:52.759Z,16.59
2022-12-31T15:31:24.668Z,16.54
2022-12-31T15:33:56.263Z,16.51
2022-12-31T15:36:28.230Z,16.50
2022-12-31T15:38:59.751Z,16.51
2022-12-31T15:41:31.686Z,16.49
2022-12-31T15:44:03.264Z,16.46
2022-12-31T15:46:35.262Z,16.45
2022-12-31T15:49:11.769Z,16.46
2022-12-31T15:51:47.040Z,16.44
2022-12-31T15:54:18.564Z,16.43
2022-12-31T15:56:50.400Z,16.38
2022-12-31T15:59:22.245Z,16.30
2022-12-31T16:01:54.033Z,16.30
2022-12-31T16:04:25.643Z,16.30
2022-12-31T16:06:57.720Z,16.37
2022-12-31T16:09:29.251Z,16.35
2022-12-31T16:12:01.128Z,16.43
2022-12-31T16:14:33.202Z,16.41
2022-12-31T16:17:05.093Z,16.47
2022-12-31T16:19:36.704Z,16.45
2022-12-31T16:22:08.567Z,16.51
2022-12-31T16:25:02.804Z,16.53
2022-12-31T16:27:32.085Z,16.56
2022-12-31T16:30:04.933Z,16.63
2022-12-31T16:32:36.827Z,16.67
2022-12-31T16:35:17.513Z,16.68
2022-12-31T16:37:52.095Z,16.75
2022-12-31T16:40:24.734Z,16.77
2022-12-31T16:42:56.732Z,16.80
2022-12-31T16:45:28.244Z,16.87
2022-12-31T16:48:00.183Z,16.91
2022-12-31T16:50:31.719Z,16.93
2022-12-31T16:53:04.312Z,16.92
2022-12-31T16:55:35.903Z,16.93
2022-12-31T16:58:07.784Z,16.93
2022-12-31T17:00:39.444Z,16.90
2022-12-31T17:03:11.341Z,16.96
2022-12-31T17:05:42.940Z,17.00
2022-12-31T17:08:14.809Z,16.99
2022-12-31T17:10:46.678Z,17.01
2022-12-31T17:13:28.930Z,17.03
2022-12-31T17:16:01.409Z,17.01
2022-12-31T17:18:32.983Z,16.99
2022-12-31T17:21:04.864Z,16.96
2022-12-31T17:23:36.477Z,16.90
2022-12-31T17:26:08.390Z,16.79
2022-12-31T17:28:39.941Z,16.92
2022-12-31T17:31:11.909Z,16.87
2022-12-31T17:33:43.478Z,16.82
2022-12-31T17:36:15.638Z,16.83
2022-12-31T17:38:47.260Z,16.82
2022-12-31T17:41:18.969Z,16.85
2022-12-31T17:43:50.507Z,16.88
2022-12-31T17:46:22.340Z,16.89
2022-12-31T17:48:54.066Z,16.89
2022-12-31T17:51:26.012Z,16.90
2022-12-31T17:53:57.530Z,16.92
2022-12-31T17:56:29.454Z,16.83
2022-12-31T17:59:00.996Z,16.82
2022-12-31T18:01:32.951Z,16.75
2022-12-31T18:04:04.579Z,16.79
2022-12-31T18:06:36.436Z,16.77
2022-12-31T18:09:07.978Z,16.79
2022-12-31T18:11:39.815Z,16.80
2022-12-31T18:14:11.323Z,16.75
2022-12-31T18:16:43.248Z,16.73
2022-12-31T18:19:37.779Z,16.68
2022-12-31T18:22:07.073Z,16.74
2022-12-31T18:24:38.599Z,16.71
2022-12-31T18:27:10.660Z,16.68
2022-12-31T18:29:42.233Z,16.63
2022-12-31T18:32:14.346Z,16.69
2022-12-31T18:34:45.865Z,16.62
2022-12-31T18:37:21.791Z,16.62
2022-12-31T18:39:53.869Z,16.60
2022-12-31T18:42:25.727Z,16.51
2022-12-31T18:44:57.347Z,16.52
2022-12-31T18:47:32.742Z,16.46
2022-12-31T18:50:08.942Z,16.45
2022-12-31T18:52:40.925Z,16.37
2022-12-31T18:55:12.593Z,16.26
2022-12-31T18:57:44.419Z,16.20
2022-12-31T19:00:15.958Z,16.14
2022-12-31T19:02:47.957Z,16.03
2022-12-31T19:05:19.513Z,16.01
2022-12-31T19:07:51.397Z,15.94
2022-12-31T19:10:23.010Z,15.84
2022-12-31T19:12:55.041Z,15.86
2022-12-31T19:15:26.561Z,15.83
2022-12-31T19:17:58.475Z,15.78
2022-12-31T19:20:30.035Z,15.81
2022-12-31T19:23:02.078Z,15.85
2022-12-31T19:25:33.807Z,15.82
2022-12-31T19:28:05.867Z,15.89
2022-12-31T19:30:37.435Z,15.85
2022-12-31T19:33:09.277Z,15.88
2022-12-31T19:35:41.672Z,15.84
2022-12-31T19:38:13.510Z,15.87
2022-12-31T19:40:45.054Z,15.84
2022-12-31T19:43:16.971Z,15.83
2022-12-31T19:45:48.608Z,15.84
2022-12-31T19:48:20.572Z,15.81
2022-12-31T19:50:52.154Z,15.86
2022-12-31T19:53:24.074Z,15.80
2022-12-31T19:55:55.635Z,15.71
2022-12-31T19:58:27.575Z,15.75
2022-12-31T20:01:02.722Z,15.73
2022-12-31T20:03:35.425Z,15.74
2022-12-31T20:06:07.137Z,15.80
2022-12-31T20:08:39.148Z,15.76
2022-12-31T20:11:10.740Z,15.82
2022-12-31T20:13:42.709Z,15.84
2022-12-31T20:16:14.370Z,15.83
2022-12-31T20:18:46.304Z,15.89
2022-12-31T20:21:17.939Z,15.87
2022-12-31T20:23:49.812Z,15.92
2022-12-31T20:26:21.344Z,15.94
2022-12-31T20:28:53.128Z,15.88
2022-12-31T20:31:24.774Z,15.89
2022-12-31T20:33:56.869Z,15.84
2022-12-31T20:36:28.397Z,15.89
2022-12-31T20:39:00.353Z,15.90
2022-12-31T20:41:34.803Z,15.93
2022-12-31T20:44:06.650Z,15.98
2022-12-31T20:46:38.256Z,16.00
2022-12-31T20:49:10.237Z,15.98
2022-12-31T20:51:42.772Z,16.05
2022-12-31T20:54:17.036Z,16.03
2022-12-31T20:56:48.546Z,16.03
2022-12-31T20:59:20.433Z,15.97
2022-12-31T21:04:46.409Z,16.05
2022-12-31T21:07:18.095Z,16.14
2022-12-31T21:09:50.021Z,16.05
2022-12-31T21:12:40.097Z,16.07
2022-12-31T21:15:12.163Z,16.08
2022-12-31T21:17:43.722Z,16.12
2022-12-31T21:20:15.688Z,16.13
2022-12-31T21:22:47.230Z,16.10
2022-12-31T21:25:19.115Z,16.06
2022-12-31T21:27:50.647Z,16.03
2022-12-31T21:30:22.535Z,16.04
2022-12-31T21:32:54.132Z,16.05
2022-12-31T21:35:47.026Z,16.10
2022-12-31T21:38:17.716Z,16.05
2022-12-31T21:40:49.663Z,16.08
2022-12-31T21:43:21.313Z,16.07
2022-12-31T21:45:53.206Z,16.06
2022-12-31T21:48:25.045Z,16.09
2022-12-31T21:50:57.032Z,16.03
2022-12-31T21:53:36.119Z,16.03
2022-12-31T21:56:08.832Z,16.03
2022-12-31T21:58:40.459Z,15.97
2022-12-31T22:01:31.084Z,15.99
2022-12-31T22:04:03.081Z,15.97
2022-12-31T22:06:34.611Z,15.90
2022-12-31T22:09:06.467Z,15.99
2022-12-31T22:11:37.978Z,15.98
2022-12-31T22:14:09.843Z,15.95
2022-12-31T22:16:41.415Z,15.90
2022-12-31T22:19:13.098Z,15.83
2022-12-31T22:21:44.622Z,15.82
2022-12-31T22:24:16.545Z,15.81
2022-12-31T22:26:48.053Z,15.78
2022-12-31T22:29:21.785Z,15.78
2022-12-31T22:31:57.993Z,15.75
2022-12-31T22:34:32.846Z,15.76
2022-12-31T22:37:20.365Z,15.78
2022-12-31T22:39:56.227Z,15.78
2022-12-31T22:42:27.750Z,15.67
2022-12-31T22:44:59.574Z,15.72
2022-12-31T22:47:31.158Z,15.72
2022-12-31T22:50:03.005Z,15.70
2022-12-31T22:52:34.577Z,15.67
2022-12-31T22:55:06.581Z,15.70
2022-12-31T22:57:38.153Z,15.64
2022-12-31T23:00:10.385Z,15.70
2022-12-31T23:02:43.286Z,15.69
2022-12-31T23:05:16.475Z,15.71
2022-12-31T23:07:48.196Z,15.63
2022-12-31T23:10:39.043Z,15.59
2022-12-31T23:13:29.427Z,15.59
2022-12-31T23:16:20.008Z,15.65
2022-12-31T23:19:10.437Z,15.59
2022-12-31T23:22:00.928Z,15.61
2022-12-31T23:24:32.857Z,15.70
2022-12-31T23:27:04.448Z,15.66
2022-12-31T23:29:41.959Z,15.65
2022-12-31T23:32:17.459Z,15.63
2022-12-31T23:34:49.281Z,15.58
2022-12-31T23:37:20.819Z,15.61
2022-12-31T23:39:52.748Z,15.65
2022-12-31T23:42:24.267Z,15.60
2022-12-31T23:44:56.187Z,15.56
2022-12-31T23:47:27.719Z,15.58
2022-12-31T23:49:59.542Z,15.51
2022-12-31T23:52:31.092Z,15.51
2022-12-31T23:55:04.048Z,15.50
2022-12-31T23:57:35.573Z,15.63
